createdAt,value
2022-10-01T00:01:18.992Z,99942.63
2022-10-01T00:03:46.702Z,99949.50
2022-10-01T00:06:17.885Z,99943.50
2022-10-01T00:08:49.002Z,99949.44
2022-10-01T00:11:22.426Z,99952.72
2022-10-01T00:13:50.536Z,99946.09
2022-10-01T00:16:23.430Z,99935.53
2022-10-01T00:18:51.048Z,99920.31
2022-10-01T00:21:27.174Z,99910.25
2022-10-01T00:23:56.315Z,99912.16
2022-10-01T00:26:28.541Z,99921.91
2022-10-01T00:29:03.287Z,99938.13
2022-10-01T00:31:30.678Z,99945.41
2022-10-01T00:34:00.121Z,99961.13
2022-10-01T00:36:27.499Z,99956.75
2022-10-01T00:39:00.543Z,99960.28
2022-10-01T00:41:35.532Z,99958.59
2022-10-01T00:44:30.368Z,99969.75
2022-10-01T00:47:03.606Z,99961.94
2022-10-01T00:49:33.663Z,99959.03
2022-10-01T00:52:04.778Z,99950.41
2022-10-01T00:54:37.844Z,99951.78
2022-10-01T00:57:07.182Z,99942.81
2022-10-01T00:59:35.718Z,99921.69
2022-10-01T01:02:02.858Z,99924.66
2022-10-01T01:04:30.155Z,99926.75
2022-10-01T01:07:00.245Z,99928.13
2022-10-01T01:09:33.738Z,99928.84
2022-10-01T01:12:01.567Z,99923.66
2022-10-01T01:14:59.678Z,99914.31
2022-10-01T01:17:52.257Z,99922.25
2022-10-01T01:21:00.773Z,99912.09
2022-10-01T01:23:52.630Z,99910.47
2022-10-01T01:26:25.188Z,99911.53
2022-10-01T01:28:57.321Z,99915.91
2022-10-01T01:31:32.050Z,99908.28
2022-10-01T01:34:00.786Z,99904.44
2022-10-01T01:36:38.200Z,99899.88
2022-10-01T01:39:09.687Z,99894.50
2022-10-01T01:41:41.118Z,99905.47
2022-10-01T01:44:12.480Z,99898.16
2022-10-01T01:46:44.222Z,99909.97
2022-10-01T01:49:11.480Z,99898.31
2022-10-01T01:51:48.397Z,99904.31
2022-10-01T01:54:15.933Z,99904.59
2022-10-01T01:56:43.058Z,99894.84
2022-10-01T01:59:10.728Z,99893.50
2022-10-01T02:01:43.503Z,99910.59
2022-10-01T02:04:18.553Z,99894.56
2022-10-01T02:06:45.457Z,99906.50
2022-10-01T02:09:31.570Z,99904.53
2022-10-01T02:12:19.359Z,99907.50
2022-10-01T02:15:18.221Z,99906.50
2022-10-01T02:17:52.963Z,99896.47
2022-10-01T02:20:31.415Z,99897.50
2022-10-01T02:23:03.783Z,99904.78
2022-10-01T02:25:39.874Z,99897.91
2022-10-01T02:28:11.566Z,99901.00
2022-10-01T02:30:41.916Z,99896.53
2022-10-01T02:33:11.185Z,99885.97
2022-10-01T02:35:39.023Z,99892.72
2022-10-01T02:38:07.981Z,99898.53
2022-10-01T02:40:38.173Z,99900.94
2022-10-01T02:43:14.765Z,99896.09
2022-10-01T02:45:46.339Z,99904.47
2022-10-01T02:48:17.684Z,99906.47
2022-10-01T02:50:53.681Z,99923.25
2022-10-01T02:53:47.428Z,99920.34
2022-10-01T02:56:35.157Z,99932.53
2022-10-01T02:59:02.231Z,99943.03
2022-10-01T03:01:29.816Z,99940.25
2022-10-01T03:03:56.812Z,99940.00
2022-10-01T03:06:24.018Z,99939.44
2022-10-01T03:08:50.995Z,99950.28
2022-10-01T03:11:17.984Z,99938.63
2022-10-01T03:13:45.090Z,99938.19
2022-10-01T03:16:12.084Z,99943.09
2022-10-01T03:18:39.188Z,99939.25
2022-10-01T03:21:06.200Z,99942.63
2022-10-01T03:23:33.202Z,99938.81
2022-10-01T03:26:00.147Z,99939.63
2022-10-01T03:28:27.182Z,99939.41
2022-10-01T03:31:08.107Z,99944.56
2022-10-01T03:33:36.260Z,99950.38
2022-10-01T03:36:04.679Z,99945.94
2022-10-01T03:38:31.751Z,99946.84
2022-10-01T03:40:58.860Z,99953.19
2022-10-01T03:43:29.237Z,99949.03
2022-10-01T03:45:56.892Z,99944.59
2022-10-01T03:48:24.766Z,99943.66
2022-10-01T03:50:59.504Z,99954.25
2022-10-01T03:53:28.060Z,99958.75
2022-10-01T03:55:55.529Z,99965.50
2022-10-01T03:58:23.507Z,99953.75
2022-10-01T04:00:51.292Z,99953.75
2022-10-01T04:03:18.663Z,99946.44
2022-10-01T04:05:46.467Z,99945.94
2022-10-01T04:08:14.656Z,99951.41
2022-10-01T04:10:42.257Z,99952.84
2022-10-01T04:13:10.047Z,99949.50
2022-10-01T04:15:37.067Z,99942.69
2022-10-01T04:18:06.238Z,99954.06
2022-10-01T04:20:53.521Z,99958.25
2022-10-01T04:23:20.567Z,99954.06
2022-10-01T04:25:47.500Z,99971.72
2022-10-01T04:28:14.926Z,99980.06
2022-10-01T04:30:44.621Z,99979.19
2022-10-01T04:33:16.479Z,99981.03
2022-10-01T04:35:44.155Z,99975.63
2022-10-01T04:38:16.789Z,99981.03
2022-10-01T04:40:44.107Z,99980.22
2022-10-01T04:43:12.378Z,99981.88
2022-10-01T04:45:39.512Z,99973.47
2022-10-01T04:48:06.535Z,99961.59
2022-10-01T04:50:33.898Z,99969.16
2022-10-01T04:53:01.066Z,99965.84
2022-10-01T04:55:28.327Z,99969.38
2022-10-01T04:57:55.344Z,99967.63
2022-10-01T05:00:26.134Z,99962.97
2022-10-01T05:02:54.007Z,99961.66
2022-10-01T05:05:23.156Z,99970.53
2022-10-01T05:07:51.297Z,99968.06
2022-10-01T05:10:23.554Z,99973.25
2022-10-01T05:12:51.874Z,99982.63
2022-10-01T05:15:19.893Z,99982.28
2022-10-01T05:17:48.140Z,99982.06
2022-10-01T05:20:20.667Z,99983.44
2022-10-01T05:22:49.539Z,99980.81
2022-10-01T05:25:17.511Z,99973.75
2022-10-01T05:27:44.817Z,99978.59
2022-10-01T05:30:14.033Z,99965.13
2022-10-01T05:32:42.098Z,99971.66
2022-10-01T05:35:09.670Z,99972.22
2022-10-01T05:37:36.958Z,99977.84
2022-10-01T05:40:08.667Z,99991.94
2022-10-01T05:42:35.656Z,99994.13
2022-10-01T05:45:02.586Z,100008.63
2022-10-01T05:47:29.776Z,99997.13
2022-10-01T05:49:56.782Z,99991.44
2022-10-01T05:52:23.829Z,99987.59
2022-10-01T05:54:50.813Z,99996.56
2022-10-01T05:57:17.859Z,99991.22
2022-10-01T05:59:44.800Z,99992.53
2022-10-01T06:05:18.965Z,99996.94
2022-10-01T06:07:46.061Z,99989.19
2022-10-01T06:10:13.717Z,99987.88
2022-10-01T06:12:40.880Z,99981.69
2022-10-01T06:15:08.315Z,99981.41
2022-10-01T06:17:35.359Z,99984.13
2022-10-01T06:20:02.293Z,99992.25
2022-10-01T06:22:29.343Z,99991.00
2022-10-01T06:24:56.841Z,100001.91
2022-10-01T06:27:23.888Z,100006.22
2022-10-01T06:29:50.896Z,100008.81
2022-10-01T06:32:19.886Z,99996.94
2022-10-01T06:34:47.217Z,99996.28
2022-10-01T06:37:14.310Z,100002.22
2022-10-01T06:39:41.290Z,99987.56
2022-10-01T06:42:08.276Z,99979.28
2022-10-01T06:44:35.304Z,99981.72
2022-10-01T06:47:02.502Z,99983.66
2022-10-01T06:49:29.493Z,99978.13
2022-10-01T06:52:15.491Z,99965.13
2022-10-01T06:54:42.463Z,99962.31
2022-10-01T06:57:09.441Z,99949.22
2022-10-01T06:59:39.394Z,99961.34
2022-10-01T07:02:06.852Z,99957.03
2022-10-01T07:04:33.891Z,99969.00
2022-10-01T07:07:01.100Z,99970.75
2022-10-01T07:09:28.184Z,99970.34
2022-10-01T07:11:55.199Z,99962.13
2022-10-01T07:14:22.261Z,99961.31
2022-10-01T07:16:49.307Z,99960.84
2022-10-01T07:19:16.242Z,99958.38
2022-10-01T07:21:43.245Z,99954.03
2022-10-01T07:24:10.144Z,99960.16
2022-10-01T07:26:37.131Z,99964.09
2022-10-01T07:29:04.866Z,99967.03
2022-10-01T07:31:33.007Z,99964.91
2022-10-01T07:34:00.200Z,99940.66
2022-10-01T07:36:27.345Z,99934.69
2022-10-01T07:38:54.345Z,99930.16
2022-10-01T07:41:21.767Z,99922.34
2022-10-01T07:43:50.002Z,99938.72
2022-10-01T07:46:17.051Z,99941.97
2022-10-01T07:48:46.487Z,99944.47
2022-10-01T07:51:13.604Z,99960.66
2022-10-01T07:53:40.649Z,99962.38
2022-10-01T07:56:10.853Z,99965.34
2022-10-01T07:58:37.894Z,99966.81
2022-10-01T08:01:05.522Z,99973.25
2022-10-01T08:03:32.566Z,99969.06
2022-10-01T08:05:59.996Z,99965.28
2022-10-01T08:08:27.073Z,99975.34
2022-10-01T08:10:53.969Z,99967.97
2022-10-01T08:13:24.946Z,99978.06
2022-10-01T08:15:54.931Z,99972.78
2022-10-01T08:18:23.997Z,99967.53
2022-10-01T08:20:51.257Z,99973.13
2022-10-01T08:23:18.292Z,99968.56
2022-10-01T08:25:45.997Z,99970.13
2022-10-01T08:28:13.302Z,99978.75
2022-10-01T08:30:42.185Z,99974.72
2022-10-01T08:33:12.020Z,99976.13
2022-10-01T08:35:40.641Z,99979.13
2022-10-01T08:38:08.088Z,99980.56
2022-10-01T08:40:38.245Z,99988.34
2022-10-01T08:43:07.716Z,99983.97
2022-10-01T08:45:43.261Z,99986.69
2022-10-01T08:48:31.729Z,99973.31
2022-10-01T08:51:16.109Z,99985.78
2022-10-01T08:53:55.516Z,99975.50
2022-10-01T08:56:35.247Z,99975.56
2022-10-01T08:59:10.420Z,99972.59
2022-10-01T09:01:37.909Z,99966.59
2022-10-01T09:04:06.352Z,99963.28
2022-10-01T09:06:33.513Z,99961.38
2022-10-01T09:09:39.195Z,99976.34
2022-10-01T09:12:30.056Z,99964.69
2022-10-01T09:15:14.234Z,99969.59
2022-10-01T09:18:13.217Z,99968.78
2022-10-01T09:20:47.279Z,99964.13
2022-10-01T09:23:32.236Z,99955.94
2022-10-01T09:26:00.220Z,99951.59
2022-10-01T09:28:33.515Z,99942.34
2022-10-01T09:31:12.806Z,99938.00
2022-10-01T09:33:50.411Z,99925.75
2022-10-01T09:36:30.364Z,99926.03
2022-10-01T09:39:24.738Z,99924.91
2022-10-01T09:41:52.269Z,99927.06
2022-10-01T09:44:28.544Z,99933.59
2022-10-01T09:46:55.984Z,99922.56
2022-10-01T09:49:33.997Z,99915.09
2022-10-01T09:52:10.801Z,99915.97
2022-10-01T09:54:52.585Z,99900.84
2022-10-01T09:57:33.853Z,99896.22
2022-10-01T10:00:26.457Z,99897.72
2022-10-01T10:02:55.261Z,99893.31
2022-10-01T10:05:28.273Z,99895.75
2022-10-01T10:08:05.777Z,99891.41
2022-10-01T10:10:39.736Z,99877.94
2022-10-01T10:13:09.594Z,99871.66
2022-10-01T10:15:43.456Z,99871.31
2022-10-01T10:18:23.677Z,99872.34
2022-10-01T10:20:54.095Z,99867.56
2022-10-01T10:23:23.496Z,99861.28
2022-10-01T10:26:00.984Z,99860.34
2022-10-01T10:28:43.261Z,99848.13
2022-10-01T10:31:24.850Z,99841.53
2022-10-01T10:34:13.813Z,99857.13
2022-10-01T10:36:41.993Z,99840.47
2022-10-01T10:39:37.766Z,99840.16
2022-10-01T10:42:06.435Z,99840.09
2022-10-01T10:44:39.953Z,99835.41
2022-10-01T10:47:11.977Z,99831.69
2022-10-01T10:49:46.084Z,99839.72
2022-10-01T10:52:42.626Z,99832.72
2022-10-01T10:55:30.365Z,99827.50
2022-10-01T10:58:15.268Z,99814.44
2022-10-01T11:00:50.586Z,99806.78
2022-10-01T11:03:23.024Z,99802.09
2022-10-01T11:05:52.210Z,99801.72
2022-10-01T11:08:21.991Z,99794.38
2022-10-01T11:10:53.922Z,99785.03
2022-10-01T11:13:49.788Z,99779.56
2022-10-01T11:16:29.765Z,99770.94
2022-10-01T11:19:15.575Z,99771.66
2022-10-01T11:22:15.856Z,99768.56
2022-10-01T11:25:19.158Z,99756.50
2022-10-01T11:27:49.277Z,99753.47
2022-10-01T11:30:25.098Z,99762.09
2022-10-01T11:33:17.228Z,99758.31
2022-10-01T11:35:55.534Z,99758.06
2022-10-01T11:38:31.101Z,99752.28
2022-10-01T11:41:16.244Z,99746.00
2022-10-01T11:43:50.050Z,99746.81
2022-10-01T11:46:42.701Z,99744.09
2022-10-01T11:49:28.158Z,99739.59
2022-10-01T11:52:03.881Z,99739.13
2022-10-01T11:54:34.814Z,99735.66
2022-10-01T11:57:23.226Z,99741.06
2022-10-01T12:00:04.530Z,99754.69
2022-10-01T12:02:43.277Z,99746.72
2022-10-01T12:05:19.096Z,99749.19
2022-10-01T12:08:05.638Z,99745.50
2022-10-01T12:10:44.969Z,99738.69
2022-10-01T12:13:33.466Z,99744.78
2022-10-01T12:16:08.854Z,99732.84
2022-10-01T12:18:35.807Z,99731.00
2022-10-01T12:21:08.078Z,99727.16
2022-10-01T12:23:48.743Z,99721.47
2022-10-01T12:26:18.555Z,99714.00
2022-10-01T12:29:00.550Z,99715.69
2022-10-01T12:31:42.329Z,99697.13
2022-10-01T12:34:37.150Z,99711.50
2022-10-01T12:37:28.883Z,99700.69
2022-10-01T12:40:08.995Z,99694.88
2022-10-01T12:42:54.341Z,99683.84
2022-10-01T12:45:28.172Z,99678.19
2022-10-01T12:48:16.542Z,99672.59
2022-10-01T12:51:10.143Z,99670.34
2022-10-01T12:53:49.098Z,99668.66
2022-10-01T12:56:39.261Z,99670.28
2022-10-01T12:59:27.550Z,99671.78
2022-10-01T13:02:41.960Z,99685.19
2022-10-01T13:05:33.494Z,99668.03
2022-10-01T13:08:01.151Z,99672.13
2022-10-01T13:10:47.637Z,99670.16
2022-10-01T13:13:41.929Z,99680.63
2022-10-01T13:16:34.001Z,99660.06
2022-10-01T13:19:16.693Z,99661.28
2022-10-01T13:22:19.137Z,99659.34
2022-10-01T13:25:15.489Z,99659.56
2022-10-01T13:28:09.731Z,99654.00
2022-10-01T13:31:14.950Z,99665.66
2022-10-01T13:33:42.757Z,99661.69
2022-10-01T13:36:10.908Z,99666.19
2022-10-01T13:38:37.855Z,99663.47
2022-10-01T13:41:07.801Z,99657.88
2022-10-01T13:43:35.880Z,99658.19
2022-10-01T13:46:12.348Z,99647.84
2022-10-01T13:48:47.236Z,99658.81
2022-10-01T13:51:15.963Z,99649.94
2022-10-01T13:53:43.039Z,99646.41
2022-10-01T13:56:13.111Z,99653.31
2022-10-01T13:58:41.381Z,99644.53
2022-10-01T14:01:36.985Z,99646.63
2022-10-01T14:04:06.781Z,99656.25
2022-10-01T14:06:40.146Z,99650.38
2022-10-01T14:09:26.579Z,99651.31
2022-10-01T14:12:27.132Z,99652.03
2022-10-01T14:15:20.214Z,99652.63
2022-10-01T14:17:55.938Z,99651.31
2022-10-01T14:20:27.304Z,99655.78
2022-10-01T14:23:09.020Z,99653.16
2022-10-01T14:25:38.960Z,99646.75
2022-10-01T14:28:17.881Z,99642.66
2022-10-01T14:30:56.342Z,99644.97
2022-10-01T14:33:42.620Z,99642.34
2022-10-01T14:36:19.324Z,99635.97
2022-10-01T14:38:46.394Z,99632.91
2022-10-01T14:41:23.583Z,99636.78
2022-10-01T14:43:50.684Z,99639.31
2022-10-01T14:46:19.187Z,99638.03
2022-10-01T14:48:58.502Z,99644.91
2022-10-01T14:51:30.556Z,99650.59
2022-10-01T14:54:03.371Z,99657.06
2022-10-01T14:56:32.984Z,99653.91
2022-10-01T14:59:05.609Z,99659.03
2022-10-01T15:01:32.719Z,99664.16
2022-10-01T15:03:59.923Z,99668.91
2022-10-01T15:06:30.161Z,99666.50
2022-10-01T15:09:11.963Z,99662.44
2022-10-01T15:11:44.245Z,99663.91
2022-10-01T15:14:21.333Z,99648.66
2022-10-01T15:16:49.872Z,99668.56
2022-10-01T15:19:23.048Z,99665.31
2022-10-01T15:21:53.664Z,99677.50
2022-10-01T15:24:39.564Z,99668.69
2022-10-01T15:27:08.524Z,99678.69
2022-10-01T15:29:38.696Z,99684.28
2022-10-01T15:32:06.717Z,99678.06
2022-10-01T15:34:35.053Z,99669.22
2022-10-01T15:37:02.741Z,99675.75
2022-10-01T15:39:36.354Z,99679.63
2022-10-01T15:42:09.322Z,99683.28
2022-10-01T15:44:38.384Z,99675.22
2022-10-01T15:47:31.925Z,99677.00
2022-10-01T15:50:10.445Z,99687.50
2022-10-01T15:52:53.572Z,99693.28
2022-10-01T15:55:26.194Z,99691.00
2022-10-01T15:58:03.472Z,99685.16
2022-10-01T16:00:33.953Z,99694.38
2022-10-01T16:03:02.956Z,99706.34
2022-10-01T16:05:37.897Z,99703.25
2022-10-01T16:08:05.732Z,99699.50
2022-10-01T16:10:37.329Z,99710.69
2022-10-01T16:13:44.999Z,99715.94
2022-10-01T16:16:15.279Z,99716.78
2022-10-01T16:18:43.205Z,99707.00
2022-10-01T16:21:11.651Z,99710.03
2022-10-01T16:23:50.591Z,99711.75
2022-10-01T16:26:38.462Z,99721.59
2022-10-01T16:29:19.488Z,99711.47
2022-10-01T16:31:46.722Z,99718.84
2022-10-01T16:34:16.716Z,99720.59
2022-10-01T16:36:44.832Z,99716.75
2022-10-01T16:39:15.722Z,99727.19
2022-10-01T16:41:56.575Z,99718.22
2022-10-01T16:44:37.684Z,99728.31
2022-10-01T16:47:04.842Z,99734.63
2022-10-01T16:49:32.024Z,99740.44
2022-10-01T16:51:59.173Z,99742.31
2022-10-01T16:54:26.934Z,99736.66
2022-10-01T16:56:55.485Z,99747.56
2022-10-01T16:59:24.887Z,99756.59
2022-10-01T17:01:55.816Z,99760.16
2022-10-01T17:04:23.650Z,99759.06
2022-10-01T17:06:50.814Z,99766.22
2022-10-01T17:09:17.912Z,99767.09
2022-10-01T17:11:46.547Z,99763.78
2022-10-01T17:14:18.449Z,99782.97
2022-10-01T17:16:45.675Z,99785.72
2022-10-01T17:19:14.894Z,99787.88
2022-10-01T17:21:42.183Z,99795.53
2022-10-01T17:24:11.076Z,99798.03
2022-10-01T17:26:43.016Z,99804.28
2022-10-01T17:29:10.303Z,99799.09
2022-10-01T17:31:41.516Z,99805.63
2022-10-01T17:34:08.712Z,99796.91
2022-10-01T17:36:35.944Z,99795.28
2022-10-01T17:39:03.782Z,99792.84
2022-10-01T17:41:30.810Z,99790.38
2022-10-01T17:43:58.187Z,99787.66
2022-10-01T17:46:25.195Z,99794.47
2022-10-01T17:48:52.237Z,99787.41
2022-10-01T17:51:20.017Z,99784.94
2022-10-01T17:53:48.017Z,99781.66
2022-10-01T17:56:17.724Z,99785.50
2022-10-01T17:58:45.840Z,99781.69
2022-10-01T18:01:20.040Z,99783.88
2022-10-01T18:03:47.480Z,99783.88
2022-10-01T18:06:16.164Z,99787.44
2022-10-01T18:08:58.920Z,99787.69
2022-10-01T18:11:28.551Z,99802.38
2022-10-01T18:13:55.586Z,99802.13
2022-10-01T18:16:23.284Z,99807.00
2022-10-01T18:19:52.253Z,99812.19
2022-10-01T18:21:46.046Z,99814.63
2022-10-01T18:24:14.214Z,99818.72
2022-10-01T18:26:41.763Z,99819.28
2022-10-01T18:29:08.794Z,99825.22
2022-10-01T18:31:39.562Z,99846.75
2022-10-01T18:34:18.348Z,99856.56
2022-10-01T18:36:54.400Z,99861.50
2022-10-01T18:39:49.584Z,99861.75
2022-10-01T18:42:28.754Z,99868.56
2022-10-01T18:44:58.057Z,99870.72
2022-10-01T18:47:41.857Z,99868.25
2022-10-01T18:50:20.797Z,99871.53
2022-10-01T18:53:03.302Z,99863.91
2022-10-01T18:55:48.992Z,99856.53
2022-10-01T18:58:26.142Z,99854.38
2022-10-01T19:01:00.896Z,99862.50
2022-10-01T19:03:41.741Z,99861.31
2022-10-01T19:06:22.135Z,99865.38
2022-10-01T19:09:08.699Z,99857.72
2022-10-01T19:11:42.087Z,99878.63
2022-10-01T19:14:27.886Z,99887.63
2022-10-01T19:17:11.524Z,99887.06
2022-10-01T19:20:05.861Z,99896.84
2022-10-01T19:23:03.686Z,99901.72
2022-10-01T19:26:01.996Z,99883.78
2022-10-01T19:29:03.952Z,99893.50
2022-10-01T19:31:33.937Z,99903.84
2022-10-01T19:34:15.603Z,99901.38
2022-10-01T19:36:50.362Z,99900.81
2022-10-01T19:39:23.508Z,99902.44
2022-10-01T19:41:53.048Z,99915.44
2022-10-01T19:44:27.614Z,99926.88
2022-10-01T19:47:05.302Z,99936.94
2022-10-01T19:49:36.226Z,99935.03
2022-10-01T19:52:13.055Z,99928.28
2022-10-01T19:54:55.730Z,99933.47
2022-10-01T19:57:28.960Z,99939.72
2022-10-01T19:59:59.648Z,99944.44
2022-10-01T20:02:58.115Z,99935.66
2022-10-01T20:05:29.473Z,99945.19
2022-10-01T20:08:00.122Z,99949.00
2022-10-01T20:10:40.810Z,99947.09
2022-10-01T20:13:29.128Z,99960.41
2022-10-01T20:16:00.520Z,99950.03
2022-10-01T20:18:42.707Z,99946.22
2022-10-01T20:21:25.149Z,99965.28
2022-10-01T20:24:01.825Z,99969.41
2022-10-01T20:27:09.081Z,99978.34
2022-10-01T20:29:52.029Z,99980.28
2022-10-01T20:32:21.984Z,99976.53
2022-10-01T20:35:04.196Z,99986.91
2022-10-01T20:37:50.398Z,100000.97
2022-10-01T20:40:26.971Z,99997.16
2022-10-01T20:43:01.544Z,99999.88
2022-10-01T20:45:33.487Z,100023.97
2022-10-01T20:48:12.038Z,100024.78
2022-10-01T20:50:45.820Z,100026.66
2022-10-01T20:53:21.491Z,100020.63
2022-10-01T20:55:56.067Z,100028.53
2022-10-01T20:58:30.193Z,100023.63
2022-10-01T21:01:10.359Z,100020.78
2022-10-01T21:03:44.428Z,100030.13
2022-10-01T21:06:19.504Z,100031.72
2022-10-01T21:09:18.209Z,100029.00
2022-10-01T21:11:52.475Z,100033.00
2022-10-01T21:14:22.178Z,100022.34
2022-10-01T21:17:05.390Z,100033.59
2022-10-01T21:19:35.192Z,100036.13
2022-10-01T21:22:18.971Z,100023.31
2022-10-01T21:25:21.526Z,100053.84
2022-10-01T21:27:48.670Z,100071.78
2022-10-01T21:30:19.004Z,100067.03
2022-10-01T21:33:02.449Z,100071.38
2022-10-01T21:35:33.396Z,100071.78
2022-10-01T21:38:08.163Z,100071.88
2022-10-01T21:41:13.474Z,100073.13
2022-10-01T21:44:12.614Z,100083.97
2022-10-01T21:47:06.871Z,100087.59
2022-10-01T21:49:39.988Z,100107.78
2022-10-01T21:52:19.071Z,100112.88
2022-10-01T21:55:09.398Z,100111.72
2022-10-01T21:58:08.237Z,100106.00
2022-10-01T22:00:35.493Z,100117.50
2022-10-01T22:03:47.861Z,100113.53
2022-10-01T22:06:33.038Z,100129.81
2022-10-01T22:09:00.163Z,100130.88
2022-10-01T22:11:38.369Z,100133.25
2022-10-01T22:14:16.653Z,100142.88
2022-10-01T22:17:08.817Z,100143.78
2022-10-01T22:19:39.063Z,100150.00
2022-10-01T22:22:39.270Z,100152.38
2022-10-01T22:25:08.178Z,100155.75
2022-10-01T22:27:48.856Z,100154.13
2022-10-01T22:30:22.370Z,100163.16
2022-10-01T22:33:06.170Z,100158.59
2022-10-01T22:35:40.354Z,100163.81
2022-10-01T22:38:17.883Z,100153.38
2022-10-01T22:40:51.771Z,100149.38
2022-10-01T22:43:19.024Z,100154.69
2022-10-01T22:45:53.045Z,100156.25
2022-10-01T22:48:47.182Z,100146.94
2022-10-01T22:51:38.573Z,100162.94
2022-10-01T22:54:31.274Z,100166.94
2022-10-01T22:56:58.777Z,100169.88
2022-10-01T22:59:37.610Z,100166.72
2022-10-01T23:02:23.826Z,100167.78
2022-10-01T23:04:59.859Z,100168.59
2022-10-01T23:07:57.665Z,100166.75
2022-10-01T23:10:50.627Z,100170.75
2022-10-01T23:13:28.829Z,100165.81
2022-10-01T23:16:14.135Z,100174.25
2022-10-01T23:19:11.228Z,100198.72
2022-10-01T23:21:59.030Z,100195.34
2022-10-01T23:24:41.723Z,100194.97
2022-10-01T23:27:11.754Z,100202.25
2022-10-01T23:29:50.548Z,100201.91
2022-10-01T23:35:54.202Z,100196.50
2022-10-01T23:39:09.168Z,100188.38
2022-10-01T23:41:43.528Z,100194.03
2022-10-01T23:44:22.182Z,100209.06
2022-10-01T23:46:52.150Z,100203.44
2022-10-01T23:49:24.211Z,100202.09
2022-10-01T23:52:02.299Z,100193.06
2022-10-01T23:54:44.583Z,100183.88
2022-10-01T23:57:28.462Z,100191.66
